Time;durP1;ratioP1;P1;durP2;ratioP2;P2;SDS_P1;SDS_P2;PMS_P1;PMS_P2;Temp;Humidity;BMP_temperature;BMP_pressure;BME280_temperature;BME280_humidity;BME280_pressure;Samples;Min_cycle;Max_cycle;Signal;HPM_P1;HPM_P2
2022/10/18 00:00:08;;;;;;;4.93;2.97;;;;;;;;;;5064176;28;20225;-34
2022/10/18 00:02:35;;;;;;;2.63;2.43;;;;;;;;;;5067437;28;20205;-35
2022/10/18 00:05:02;;;;;;;5.77;2.97;;;;;;;;;;5050830;28;20209;-35
2022/10/18 00:07:29;;;;;;;4.57;2.10;;;;;;;;;;5070475;28;20264;-32
2022/10/18 00:09:56;;;;;;;4.43;2.03;;;;;;;;;;5073232;28;20238;-38
2022/10/18 00:12:23;;;;;;;4.10;2.30;;;;;;;;;;5055201;28;20284;-36
2022/10/18 00:14:52;;;;;;;2.70;2.13;;;;;;;;;;5070195;28;20295;-38
2022/10/18 00:17:19;;;;;;;8.03;2.40;;;;;;;;;;5072584;28;20508;-37
2022/10/18 00:19:47;;;;;;;3.47;2.60;;;;;;;;;;5044519;28;20214;-35
2022/10/18 00:22:14;;;;;;;7.30;2.63;;;;;;;;;;5064130;28;20517;-37
2022/10/18 00:24:41;;;;;;;2.07;1.97;;;;;;;;;;5073987;28;20223;-36
2022/10/18 00:27:08;;;;;;;3.03;2.10;;;;;;;;;;5042785;28;20198;-38
2022/10/18 00:29:35;;;;;;;3.57;2.83;;;;;;;;;;5062162;28;20208;-39
2022/10/18 00:32:04;;;;;;;3.73;2.50;;;;;;;;;;5058610;28;20221;-34
2022/10/18 00:34:31;;;;;;;3.63;1.90;;;;;;;;;;5051573;28;20201;-37
2022/10/18 00:36:58;;;;;;;9.97;2.90;;;;;;;;;;5059580;28;20197;-37
2022/10/18 00:39:25;;;;;;;7.67;2.37;;;;;;;;;;5073310;28;20205;-33
2022/10/18 00:41:53;;;;;;;9.80;2.50;;;;;;;;;;5064935;28;20201;-35
2022/10/18 00:44:38;;;;;;;9.57;2.30;;;;;;;;;;5062109;28;20205;-38
2022/10/18 00:47:09;;;;;;;8.40;2.07;;;;;;;;;;5056637;28;20205;-33
2022/10/18 00:49:37;;;;;;;5.53;2.33;;;;;;;;;;5056901;28;20235;-34
2022/10/18 00:52:05;;;;;;;6.80;2.67;;;;;;;;;;5045401;28;20405;-35
2022/10/18 00:54:34;;;;;;;9.13;3.00;;;;;;;;;;5043669;28;20210;-34
2022/10/18 00:57:01;;;;;;;5.77;3.03;;;;;;;;;;5053657;28;20206;-34
2022/10/18 00:59:29;;;;;;;4.57;2.50;;;;;;;;;;5049793;28;20221;-35
2022/10/18 01:01:56;;;;;;;7.70;2.53;;;;;;;;;;5044984;28;20198;-36
2022/10/18 01:04:24;;;;;;;7.00;3.17;;;;;;;;;;5047188;28;20201;-35
2022/10/18 01:06:56;;;;;;;4.53;2.10;;;;;;;;;;5040790;28;20287;-36
2022/10/18 01:09:32;;;;;;;2.30;2.10;;;;;;;;;;5048924;28;20253;-35
2022/10/18 01:12:06;;;;;;;4.23;2.63;;;;;;;;;;5037124;28;20225;-33
2022/10/18 01:14:39;;;;;;;3.37;2.10;;;;;;;;;;5046539;28;20285;-37
2022/10/18 01:17:09;;;;;;;5.13;2.33;;;;;;;;;;5035713;28;20213;-35
2022/10/18 01:20:02;;;;;;;3.20;2.30;;;;;;;;;;5045359;28;20209;-35
2022/10/18 01:22:33;;;;;;;4.17;2.17;;;;;;;;;;5046725;28;20195;-38
2022/10/18 01:25:03;;;;;;;4.97;2.43;;;;;;;;;;5040152;28;20213;-33
2022/10/18 01:27:45;;;;;;;5.63;2.93;;;;;;;;;;5043675;28;20203;-37
2022/10/18 01:30:32;;;;;;;3.57;2.87;;;;;;;;;;5040643;28;20229;-35
2022/10/18 01:33:04;;;;;;;7.50;2.60;;;;;;;;;;5047073;28;20225;-38
2022/10/18 01:35:32;;;;;;;4.33;2.60;;;;;;;;;;5041418;28;20203;-33
2022/10/18 01:38:01;;;;;;;4.40;2.60;;;;;;;;;;5057275;28;20203;-38
2022/10/18 01:40:30;;;;;;;5.43;2.67;;;;;;;;;;5031320;28;20242;-35
2022/10/18 01:42:58;;;;;;;2.57;2.37;;;;;;;;;;5036113;28;20214;-33
2022/10/18 01:45:26;;;;;;;4.00;2.20;;;;;;;;;;5047453;28;20201;-36
2022/10/18 01:47:55;;;;;;;2.50;2.20;;;;;;;;;;5041084;28;20216;-36
2022/10/18 01:50:29;;;;;;;7.33;2.80;;;;;;;;;;5033818;28;20226;-35
2022/10/18 01:52:56;;;;;;;3.20;2.50;;;;;;;;;;5046514;28;20300;-35
2022/10/18 01:55:26;;;;;;;3.23;2.30;;;;;;;;;;5048236;28;20194;-37
2022/10/18 01:57:59;;;;;;;7.13;2.70;;;;;;;;;;5045061;28;20202;-36
2022/10/18 02:00:32;;;;;;;2.77;2.53;;;;;;;;;;5048838;28;20231;-37
2022/10/18 02:03:05;;;;;;;4.80;2.40;;;;;;;;;;5042192;28;20217;-35
2022/10/18 02:05:39;;;;;;;4.43;2.30;;;;;;;;;;5041107;28;20209;-35
2022/10/18 02:08:08;;;;;;;4.07;2.53;;;;;;;;;;5040659;28;20219;-33
2022/10/18 02:10:38;;;;;;;5.80;1.97;;;;;;;;;;5038990;28;20223;-32
2022/10/18 02:13:05;;;;;;;4.33;2.63;;;;;;;;;;5034509;28;20195;-36
2022/10/18 02:15:35;;;;;;;3.07;2.27;;;;;;;;;;5049173;28;20213;-35
2022/10/18 02:18:06;;;;;;;3.40;2.20;;;;;;;;;;5036775;28;20299;-36
2022/10/18 02:20:33;;;;;;;3.27;2.13;;;;;;;;;;5062785;28;20528;-34
2022/10/18 02:23:01;;;;;;;4.57;2.30;;;;;;;;;;5072754;28;20198;-35
2022/10/18 02:25:30;;;;;;;9.90;2.93;;;;;;;;;;5050916;28;20206;-38
2022/10/18 02:27:57;;;;;;;3.87;1.90;;;;;;;;;;5069006;28;20201;-36
2022/10/18 02:30:29;;;;;;;5.87;2.43;;;;;;;;;;5064032;28;20232;-36
2022/10/18 02:32:58;;;;;;;5.63;2.00;;;;;;;;;;5040139;28;20734;-31
2022/10/18 02:35:28;;;;;;;5.13;2.57;;;;;;;;;;5031798;28;20204;-35
2022/10/18 02:37:57;;;;;;;3.20;2.47;;;;;;;;;;5070522;28;20198;-35
2022/10/18 02:40:25;;;;;;;2.83;2.10;;;;;;;;;;5032016;28;20223;-36
2022/10/18 02:42:55;;;;;;;2.60;2.40;;;;;;;;;;5068855;28;20204;-35
2022/10/18 02:45:22;;;;;;;2.40;2.20;;;;;;;;;;5070814;28;20217;-39
2022/10/18 02:47:49;;;;;;;3.60;2.27;;;;;;;;;;5058210;28;20202;-36
2022/10/18 02:50:16;;;;;;;4.07;2.20;;;;;;;;;;5047360;28;20253;-37
2022/10/18 02:52:45;;;;;;;2.70;2.23;;;;;;;;;;5056307;28;20236;-37
2022/10/18 02:55:12;;;;;;;2.27;2.00;;;;;;;;;;5057456;28;20217;-37
2022/10/18 02:57:39;;;;;;;2.90;2.20;;;;;;;;;;5069883;28;20431;-36
2022/10/18 03:00:07;;;;;;;2.50;2.23;;;;;;;;;;5044672;28;20284;-36
2022/10/18 03:02:34;;;;;;;5.40;2.30;;;;;;;;;;5037684;28;20211;-35
2022/10/18 03:05:01;;;;;;;4.13;2.30;;;;;;;;;;5051433;28;20201;-37
2022/10/18 03:07:28;;;;;;;5.77;2.87;;;;;;;;;;5053636;28;20209;-36
2022/10/18 03:09:57;;;;;;;2.47;2.27;;;;;;;;;;5052033;28;20231;-34
2022/10/18 03:12:24;;;;;;;2.43;2.23;;;;;;;;;;5069890;28;20228;-35
2022/10/18 03:14:51;;;;;;;4.23;2.40;;;;;;;;;;5069766;28;20498;-35
2022/10/18 03:17:18;;;;;;;4.63;2.63;;;;;;;;;;5044237;28;20208;-38
2022/10/18 03:19:45;;;;;;;4.93;2.37;;;;;;;;;;5040985;28;20236;-36
2022/10/18 03:22:12;;;;;;;3.97;2.20;;;;;;;;;;5045465;28;20201;-33
2022/10/18 03:24:39;;;;;;;6.33;2.33;;;;;;;;;;5067266;28;20244;-35
2022/10/18 03:27:08;;;;;;;2.77;2.20;;;;;;;;;;5070027;28;20212;-38
2022/10/18 03:29:35;;;;;;;3.13;1.97;;;;;;;;;;5051547;28;20202;-36
2022/10/18 03:32:02;;;;;;;4.73;2.33;;;;;;;;;;5061517;28;20221;-38
2022/10/18 03:34:29;;;;;;;3.93;2.27;;;;;;;;;;5034202;28;20213;-36
2022/10/18 03:36:56;;;;;;;3.20;2.27;;;;;;;;;;5051242;28;20201;-36
2022/10/18 03:39:23;;;;;;;2.77;2.30;;;;;;;;;;5065648;28;20533;-34
2022/10/18 03:41:51;;;;;;;5.40;3.07;;;;;;;;;;5070011;28;20228;-37
2022/10/18 03:44:19;;;;;;;2.73;2.40;;;;;;;;;;5045964;28;20197;-33
2022/10/18 03:46:46;;;;;;;2.87;2.30;;;;;;;;;;5061595;28;20202;-36
2022/10/18 03:49:13;;;;;;;6.93;2.50;;;;;;;;;;5039955;28;20656;-35
2022/10/18 03:51:40;;;;;;;7.13;2.67;;;;;;;;;;5065762;28;20232;-32
2022/10/18 03:54:08;;;;;;;3.07;2.50;;;;;;;;;;5073705;28;20341;-34
2022/10/18 03:56:35;;;;;;;4.03;2.13;;;;;;;;;;5073565;28;20216;-36
2022/10/18 03:59:03;;;;;;;8.33;2.87;;;;;;;;;;5045666;28;20352;-36
2022/10/18 04:01:31;;;;;;;4.83;2.13;;;;;;;;;;5067272;28;20275;-35
2022/10/18 04:03:58;;;;;;;3.87;2.30;;;;;;;;;;5052091;28;20663;-35
2022/10/18 04:06:26;;;;;;;3.67;2.30;;;;;;;;;;5065325;28;20208;-36
2022/10/18 04:08:53;;;;;;;5.37;2.20;;;;;;;;;;5064128;28;20205;-38
2022/10/18 04:11:20;;;;;;;4.93;2.30;;;;;;;;;;5056850;28;20228;-36
2022/10/18 04:13:47;;;;;;;3.73;2.30;;;;;;;;;;5073020;28;20215;-35
2022/10/18 04:16:14;;;;;;;3.60;2.43;;;;;;;;;;5064569;28;20225;-37
2022/10/18 04:18:42;;;;;;;5.83;2.60;;;;;;;;;;5050269;28;20213;-37
2022/10/18 04:21:09;;;;;;;3.60;2.13;;;;;;;;;;5056404;28;20223;-33
2022/10/18 04:23:37;;;;;;;2.37;2.17;;;;;;;;;;5054105;28;20563;-36
2022/10/18 04:26:04;;;;;;;2.60;2.10;;;;;;;;;;5067309;28;20209;-35
2022/10/18 04:28:31;;;;;;;4.50;2.20;;;;;;;;;;5046885;28;20219;-36
2022/10/18 04:30:58;;;;;;;3.93;2.77;;;;;;;;;;5052666;28;20252;-35
2022/10/18 04:33:25;;;;;;;6.53;2.50;;;;;;;;;;5056363;28;20241;-37
2022/10/18 04:35:54;;;;;;;3.37;2.40;;;;;;;;;;5058224;28;20211;-34
2022/10/18 04:38:21;;;;;;;4.70;2.50;;;;;;;;;;5071440;28;20197;-34
2022/10/18 04:40:48;;;;;;;2.60;2.37;;;;;;;;;;5052338;28;20305;-37
2022/10/18 04:43:16;;;;;;;3.57;3.03;;;;;;;;;;5039272;28;20207;-35
2022/10/18 04:45:45;;;;;;;3.43;2.47;;;;;;;;;;5045337;28;20202;-35
2022/10/18 04:48:12;;;;;;;2.57;2.20;;;;;;;;;;5041905;28;20204;-36
2022/10/18 04:50:39;;;;;;;8.53;2.67;;;;;;;;;;5048722;28;20236;-35
2022/10/18 04:53:08;;;;;;;6.00;2.40;;;;;;;;;;5053979;28;20227;-34
2022/10/18 04:55:35;;;;;;;11.67;2.27;;;;;;;;;;5069686;28;20297;-37
2022/10/18 04:58:02;;;;;;;3.67;2.30;;;;;;;;;;5068996;28;20210;-35
2022/10/18 05:00:29;;;;;;;7.63;2.60;;;;;;;;;;5047832;28;20233;-36
2022/10/18 05:02:57;;;;;;;6.10;2.57;;;;;;;;;;5048508;28;20205;-36
2022/10/18 05:05:24;;;;;;;3.40;2.57;;;;;;;;;;5059502;28;20201;-36
2022/10/18 05:07:53;;;;;;;4.33;2.93;;;;;;;;;;5049989;28;20289;-35
2022/10/18 05:10:21;;;;;;;5.50;3.20;;;;;;;;;;5037445;28;20324;-33
2022/10/18 05:12:48;;;;;;;3.77;2.40;;;;;;;;;;5049541;28;20225;-35
2022/10/18 05:15:15;;;;;;;5.20;4.40;;;;;;;;;;5071849;28;20273;-34
2022/10/18 05:17:43;;;;;;;3.60;2.37;;;;;;;;;;5064845;28;20415;-35
2022/10/18 05:20:10;;;;;;;2.93;2.50;;;;;;;;;;5048191;28;20224;-38
2022/10/18 05:22:37;;;;;;;4.40;2.50;;;;;;;;;;5068001;28;20193;-35
2022/10/18 05:25:05;;;;;;;3.10;2.57;;;;;;;;;;5060020;28;20212;-35
2022/10/18 05:27:33;;;;;;;5.43;2.70;;;;;;;;;;5053620;28;20212;-36
2022/10/18 05:30:00;;;;;;;2.50;2.30;;;;;;;;;;5032311;28;20227;-36
2022/10/18 05:32:27;;;;;;;4.43;2.67;;;;;;;;;;5038408;28;20232;-37
2022/10/18 05:34:54;;;;;;;2.33;2.13;;;;;;;;;;5053283;28;20202;-34
2022/10/18 05:37:21;;;;;;;4.40;2.37;;;;;;;;;;5067666;28;20496;-36
2022/10/18 05:44:54;;;;;;;5.67;2.73;;;;;;;;;;5050203;28;20285;-29
2022/10/18 05:47:21;;;;;;;7.10;3.00;;;;;;;;;;5042553;28;20207;-32
2022/10/18 05:49:49;;;;;;;4.80;2.90;;;;;;;;;;5039891;28;20231;-32
2022/10/18 05:52:16;;;;;;;5.33;2.83;;;;;;;;;;5054346;28;20224;-31
2022/10/18 05:54:43;;;;;;;4.97;2.67;;;;;;;;;;5045326;28;20313;-33
2022/10/18 05:57:11;;;;;;;4.33;2.70;;;;;;;;;;5064799;28;20202;-32
2022/10/18 05:59:38;;;;;;;6.53;3.03;;;;;;;;;;5047863;28;20234;-33
2022/10/18 06:02:07;;;;;;;3.50;2.67;;;;;;;;;;5048465;28;20199;-32
2022/10/18 06:04:34;;;;;;;8.63;3.43;;;;;;;;;;5042318;28;20202;-32
2022/10/18 06:07:01;;;;;;;5.07;2.77;;;;;;;;;;5063889;28;20266;-32
2022/10/18 06:09:29;;;;;;;3.37;2.20;;;;;;;;;;5068157;28;20201;-30
2022/10/18 06:11:57;;;;;;;6.50;2.73;;;;;;;;;;5043700;28;20236;-30
2022/10/18 06:14:24;;;;;;;2.90;2.57;;;;;;;;;;5065478;28;20203;-32
2022/10/18 06:16:51;;;;;;;13.40;2.50;;;;;;;;;;5053270;28;20202;-28
2022/10/18 06:19:20;;;;;;;8.00;2.50;;;;;;;;;;5050506;28;20220;-30
2022/10/18 06:21:47;;;;;;;4.97;2.50;;;;;;;;;;5061098;28;20746;-31
2022/10/18 06:24:14;;;;;;;5.43;2.90;;;;;;;;;;5052162;28;20405;-29
2022/10/18 06:26:41;;;;;;;3.47;2.50;;;;;;;;;;5058925;28;20207;-34
2022/10/18 06:29:08;;;;;;;4.33;2.20;;;;;;;;;;5066205;28;20214;-34
2022/10/18 06:31:35;;;;;;;2.63;2.20;;;;;;;;;;5074891;28;20256;-30
2022/10/18 06:34:03;;;;;;;4.00;2.80;;;;;;;;;;5057861;28;20228;-30
2022/10/18 06:36:32;;;;;;;4.20;3.10;;;;;;;;;;5055785;28;20214;-32
2022/10/18 06:38:59;;;;;;;5.87;2.60;;;;;;;;;;5043183;28;20289;-28
2022/10/18 06:41:26;;;;;;;4.00;2.67;;;;;;;;;;5046824;28;20222;-33
2022/10/18 06:43:56;;;;;;;4.70;2.50;;;;;;;;;;5044749;28;20217;-34
2022/10/18 06:46:23;;;;;;;7.13;2.57;;;;;;;;;;5049039;28;20194;-32
2022/10/18 06:48:50;;;;;;;4.33;2.97;;;;;;;;;;5054643;28;20211;-29
2022/10/18 06:51:18;;;;;;;4.90;2.57;;;;;;;;;;5067294;28;20229;-30
2022/10/18 06:53:47;;;;;;;3.23;2.83;;;;;;;;;;5072842;28;20217;-30
2022/10/18 06:56:14;;;;;;;6.67;2.87;;;;;;;;;;5064308;28;20199;-32
2022/10/18 06:58:41;;;;;;;7.37;3.07;;;;;;;;;;5054538;28;20205;-33
2022/10/18 07:01:09;;;;;;;5.40;3.27;;;;;;;;;;5066509;28;20222;-32
2022/10/18 07:03:36;;;;;;;5.47;3.03;;;;;;;;;;5050862;28;20237;-32
2022/10/18 07:06:04;;;;;;;9.80;3.10;;;;;;;;;;5053766;28;20206;-31
2022/10/18 07:08:31;;;;;;;5.67;3.40;;;;;;;;;;5047433;28;20217;-33
2022/10/18 07:11:00;;;;;;;3.53;2.90;;;;;;;;;;5065079;28;20219;-32
2022/10/18 07:13:29;;;;;;;7.37;3.23;;;;;;;;;;5072426;28;20223;-27
2022/10/18 07:16:04;;;;;;;5.07;3.03;;;;;;;;;;5052365;28;20273;-35
2022/10/18 07:18:32;;;;;;;4.30;3.00;;;;;;;;;;5045546;28;20208;-31
2022/10/18 07:21:01;;;;;;;4.17;3.00;;;;;;;;;;5047701;28;20225;-33
2022/10/18 07:23:28;;;;;;;5.90;2.90;;;;;;;;;;5058402;28;20219;-29
2022/10/18 07:25:55;;;;;;;5.03;3.27;;;;;;;;;;5052205;28;20289;-32
2022/10/18 07:28:24;;;;;;;9.77;3.53;;;;;;;;;;5046035;28;20218;-35
2022/10/18 07:30:51;;;;;;;9.13;3.53;;;;;;;;;;5038638;28;20226;-29
2022/10/18 07:33:19;;;;;;;4.37;3.13;;;;;;;;;;5053076;28;20317;-33
2022/10/18 07:35:46;;;;;;;3.50;3.20;;;;;;;;;;5039017;28;20210;-32
2022/10/18 07:38:14;;;;;;;4.33;3.30;;;;;;;;;;5052353;28;20226;-34
2022/10/18 07:40:41;;;;;;;7.13;3.03;;;;;;;;;;5053228;28;20225;-33
2022/10/18 07:43:08;;;;;;;3.93;3.00;;;;;;;;;;5043230;28;20373;-32
2022/10/18 07:45:36;;;;;;;7.53;3.40;;;;;;;;;;5039229;28;20203;-31
2022/10/18 07:48:04;;;;;;;6.27;3.10;;;;;;;;;;5055474;28;20288;-31
2022/10/18 07:50:31;;;;;;;7.67;2.97;;;;;;;;;;5058996;28;20228;-30
2022/10/18 07:52:58;;;;;;;7.63;3.40;;;;;;;;;;5059117;28;20226;-30
2022/10/18 07:55:25;;;;;;;5.43;3.67;;;;;;;;;;5051900;28;20212;-32
2022/10/18 07:57:52;;;;;;;8.57;3.73;;;;;;;;;;5049248;28;20217;-36
2022/10/18 08:00:20;;;;;;;4.83;3.03;;;;;;;;;;5041652;28;20313;-33
2022/10/18 08:02:48;;;;;;;8.90;3.93;;;;;;;;;;5046070;28;20217;-32
2022/10/18 08:05:16;;;;;;;8.93;4.10;;;;;;;;;;5053854;28;20201;-30
2022/10/18 08:07:43;;;;;;;9.80;4.47;;;;;;;;;;5068964;28;20216;-32
2022/10/18 08:10:10;;;;;;;8.00;3.93;;;;;;;;;;5071192;28;20312;-29
2022/10/18 08:12:40;;;;;;;11.40;3.80;;;;;;;;;;5056549;28;20304;-30
2022/10/18 08:15:08;;;;;;;7.47;3.30;;;;;;;;;;5063700;28;20210;-31
2022/10/18 08:17:35;;;;;;;6.60;3.10;;;;;;;;;;5064194;28;20197;-31
2022/10/18 08:20:04;;;;;;;5.10;3.40;;;;;;;;;;5056524;28;20224;-33
2022/10/18 08:22:31;;;;;;;7.80;3.73;;;;;;;;;;5054356;28;20212;-32
2022/10/18 08:24:58;;;;;;;4.27;3.50;;;;;;;;;;5051353;28;20202;-30
2022/10/18 08:27:25;;;;;;;10.43;4.83;;;;;;;;;;5046867;28;20208;-35
2022/10/18 08:29:53;;;;;;;8.27;3.53;;;;;;;;;;5056596;28;20222;-30
2022/10/18 08:32:20;;;;;;;7.57;3.07;;;;;;;;;;5057803;28;20288;-33
2022/10/18 08:34:47;;;;;;;4.27;3.60;;;;;;;;;;5044696;28;20257;-34
2022/10/18 08:37:16;;;;;;;11.90;3.37;;;;;;;;;;5061800;28;20279;-36
2022/10/18 08:39:43;;;;;;;6.33;3.50;;;;;;;;;;5075432;28;20244;-32
2022/10/18 08:42:17;;;;;;;11.17;3.73;;;;;;;;;;5049901;28;20213;-30
2022/10/18 08:44:45;;;;;;;6.43;3.53;;;;;;;;;;5061444;28;20198;-32
2022/10/18 08:47:14;;;;;;;7.97;3.40;;;;;;;;;;5049954;28;20457;-33
2022/10/18 08:49:44;;;;;;;3.70;3.30;;;;;;;;;;5047891;28;20214;-31
2022/10/18 08:52:15;;;;;;;4.23;3.23;;;;;;;;;;5069703;28;20194;-28
2022/10/18 08:54:47;;;;;;;7.60;3.13;;;;;;;;;;5048064;28;20210;-32
2022/10/18 08:57:16;;;;;;;5.20;3.27;;;;;;;;;;5051770;28;20204;-29
2022/10/18 08:59:44;;;;;;;9.67;2.97;;;;;;;;;;5057908;28;20226;-31
2022/10/18 09:02:21;;;;;;;5.70;2.93;;;;;;;;;;5041608;28;20260;-30
2022/10/18 09:04:51;;;;;;;14.57;3.30;;;;;;;;;;5041433;28;20231;-32
2022/10/18 09:07:24;;;;;;;5.63;3.30;;;;;;;;;;5050233;28;20304;-34
2022/10/18 09:09:54;;;;;;;5.70;3.33;;;;;;;;;;5057305;28;20267;-30
2022/10/18 09:12:32;;;;;;;10.10;3.13;;;;;;;;;;5070269;28;20284;-34
2022/10/18 09:15:15;;;;;;;9.03;2.93;;;;;;;;;;5046098;28;20224;-33
2022/10/18 09:17:47;;;;;;;4.43;3.13;;;;;;;;;;5044251;28;20290;-31
2022/10/18 09:20:21;;;;;;;4.90;2.80;;;;;;;;;;5048326;28;20226;-30
2022/10/18 09:23:04;;;;;;;8.57;3.37;;;;;;;;;;5048900;28;20205;-33
2022/10/18 09:25:35;;;;;;;4.53;2.77;;;;;;;;;;5041998;28;20210;-33
2022/10/18 09:28:11;;;;;;;5.73;2.33;;;;;;;;;;5049513;28;20198;-35
2022/10/18 09:30:41;;;;;;;4.07;2.67;;;;;;;;;;5053547;28;20218;-34
2022/10/18 09:33:17;;;;;;;3.47;3.17;;;;;;;;;;5049732;28;20201;-31
2022/10/18 09:35:45;;;;;;;4.93;2.90;;;;;;;;;;5055320;28;20206;-31
2022/10/18 09:38:14;;;;;;;3.63;2.77;;;;;;;;;;5074925;28;20292;-33
2022/10/18 09:40:48;;;;;;;7.37;2.90;;;;;;;;;;5061283;28;20290;-34
2022/10/18 09:43:17;;;;;;;7.67;2.90;;;;;;;;;;5055319;28;20218;-29
2022/10/18 09:45:45;;;;;;;7.23;2.80;;;;;;;;;;5054302;28;20206;-33
2022/10/18 09:48:14;;;;;;;5.20;2.97;;;;;;;;;;5049866;28;20205;-32
2022/10/18 09:50:43;;;;;;;5.87;3.00;;;;;;;;;;5051323;28;20233;-30
2022/10/18 09:53:17;;;;;;;5.37;3.10;;;;;;;;;;5065992;28;20215;-30
2022/10/18 09:55:52;;;;;;;4.17;2.97;;;;;;;;;;5074375;28;20197;-36
2022/10/18 09:58:23;;;;;;;3.63;2.90;;;;;;;;;;5065038;28;20289;-35
2022/10/18 10:00:52;;;;;;;4.33;2.67;;;;;;;;;;5051990;28;20229;-29
2022/10/18 10:03:19;;;;;;;4.27;2.70;;;;;;;;;;5056214;28;20199;-32
2022/10/18 10:05:46;;;;;;;6.50;3.13;;;;;;;;;;5056879;28;20208;-28
2022/10/18 10:08:13;;;;;;;4.63;2.87;;;;;;;;;;5066161;28;20217;-31
2022/10/18 10:10:46;;;;;;;4.87;2.57;;;;;;;;;;5051354;28;20225;-30
2022/10/18 10:13:21;;;;;;;8.37;3.30;;;;;;;;;;5039085;28;20208;-32
2022/10/18 10:15:52;;;;;;;4.83;2.87;;;;;;;;;;5059738;28;20205;-32
2022/10/18 10:18:21;;;;;;;4.27;2.63;;;;;;;;;;5039597;28;20203;-30
2022/10/18 10:20:49;;;;;;;4.10;2.60;;;;;;;;;;5062230;28;20233;-32
2022/10/18 10:23:20;;;;;;;4.10;3.13;;;;;;;;;;5073399;28;20207;-31
2022/10/18 10:25:51;;;;;;;5.50;2.57;;;;;;;;;;5073808;28;20221;-28
2022/10/18 10:28:21;;;;;;;4.67;2.80;;;;;;;;;;5056420;28;20229;-28
2022/10/18 10:30:48;;;;;;;3.70;2.83;;;;;;;;;;5055075;28;20305;-33
2022/10/18 10:33:33;;;;;;;5.83;2.87;;;;;;;;;;5031588;28;20237;-33
2022/10/18 10:36:01;;;;;;;4.40;3.13;;;;;;;;;;5050360;28;20300;-31
2022/10/18 10:38:29;;;;;;;5.33;2.60;;;;;;;;;;5059827;28;20198;-32
2022/10/18 10:41:02;;;;;;;3.80;2.67;;;;;;;;;;5036159;28;20321;-29
2022/10/18 10:43:32;;;;;;;8.47;3.30;;;;;;;;;;5037863;28;20203;-30
2022/10/18 10:46:01;;;;;;;3.00;2.33;;;;;;;;;;5046016;28;20234;-33
2022/10/18 10:48:29;;;;;;;7.17;2.80;;;;;;;;;;5041210;28;20208;-32
2022/10/18 10:50:59;;;;;;;3.10;2.40;;;;;;;;;;5043202;28;20214;-28
2022/10/18 10:53:28;;;;;;;4.60;3.13;;;;;;;;;;5064859;28;20246;-34
2022/10/18 10:55:56;;;;;;;5.33;2.97;;;;;;;;;;5056646;28;20224;-30
2022/10/18 10:58:24;;;;;;;5.60;2.97;;;;;;;;;;5037988;28;20310;-33
2022/10/18 11:00:53;;;;;;;8.03;2.70;;;;;;;;;;5047522;28;20236;-30
2022/10/18 11:03:22;;;;;;;3.57;2.57;;;;;;;;;;5049158;28;20209;-32
2022/10/18 11:05:51;;;;;;;5.37;3.13;;;;;;;;;;5054290;28;20201;-34
2022/10/18 11:08:20;;;;;;;3.77;2.80;;;;;;;;;;5058755;28;20202;-31
2022/10/18 11:10:57;;;;;;;3.17;2.40;;;;;;;;;;5035347;28;20230;-29
2022/10/18 11:13:28;;;;;;;6.23;2.40;;;;;;;;;;5040808;28;20236;-33
2022/10/18 11:16:00;;;;;;;2.90;2.53;;;;;;;;;;5053367;28;20201;-33
2022/10/18 11:18:29;;;;;;;4.10;2.40;;;;;;;;;;5042048;28;20202;-33
2022/10/18 11:20:58;;;;;;;5.87;2.80;;;;;;;;;;5055486;28;20225;-31
2022/10/18 11:23:28;;;;;;;3.20;2.70;;;;;;;;;;5050098;28;20194;-29
2022/10/18 11:26:08;;;;;;;8.57;3.63;;;;;;;;;;5045999;28;20198;-29
2022/10/18 11:28:42;;;;;;;3.93;2.47;;;;;;;;;;5039929;28;20281;-29
2022/10/18 11:31:15;;;;;;;4.00;2.67;;;;;;;;;;5049660;28;20226;-28
2022/10/18 11:33:49;;;;;;;3.77;2.47;;;;;;;;;;5037682;28;20203;-30
2022/10/18 11:36:18;;;;;;;3.97;3.00;;;;;;;;;;5051568;28;20202;-32
2022/10/18 11:38:50;;;;;;;4.57;2.60;;;;;;;;;;5042701;28;20206;-29
2022/10/18 11:41:24;;;;;;;6.80;3.17;;;;;;;;;;5038214;28;20260;-32
2022/10/18 11:43:53;;;;;;;4.53;2.73;;;;;;;;;;5040435;28;20296;-32
2022/10/18 11:46:26;;;;;;;6.30;2.87;;;;;;;;;;5042514;28;20210;-33
2022/10/18 11:49:03;;;;;;;7.13;3.33;;;;;;;;;;5039166;28;20203;-30
2022/10/18 11:54:16;;;;;;;4.63;2.70;;;;;;;;;;5052750;22;20235;-33
2022/10/18 11:56:48;;;;;;;6.03;3.97;;;;;;;;;;5050766;28;20212;-37
2022/10/18 11:59:23;;;;;;;5.97;2.90;;;;;;;;;;5058079;28;20205;-31
2022/10/18 12:01:58;;;;;;;9.97;2.97;;;;;;;;;;5029930;28;20217;-35
2022/10/18 12:04:26;;;;;;;6.73;2.83;;;;;;;;;;5028719;28;20201;-31
2022/10/18 12:06:55;;;;;;;4.60;2.67;;;;;;;;;;5035059;28;20288;-36
2022/10/18 12:09:25;;;;;;;5.27;3.07;;;;;;;;;;5035228;28;20202;-39
2022/10/18 12:11:54;;;;;;;6.57;3.17;;;;;;;;;;5033926;28;20211;-37
2022/10/18 12:14:24;;;;;;;4.33;2.97;;;;;;;;;;5041378;28;20236;-33
2022/10/18 12:16:55;;;;;;;3.97;2.87;;;;;;;;;;5032090;28;20206;-38
2022/10/18 12:19:24;;;;;;;7.10;3.40;;;;;;;;;;5021809;28;20257;-37
2022/10/18 12:21:52;;;;;;;3.60;3.00;;;;;;;;;;5043085;28;20221;-34
2022/10/18 12:24:22;;;;;;;4.00;2.83;;;;;;;;;;5035721;28;20295;-35
2022/10/18 12:26:50;;;;;;;10.13;3.53;;;;;;;;;;5041382;28;20203;-37
2022/10/18 12:29:21;;;;;;;9.47;3.20;;;;;;;;;;5038183;28;20209;-34
2022/10/18 12:31:50;;;;;;;5.27;3.00;;;;;;;;;;5027450;28;20324;-36
2022/10/18 12:34:27;;;;;;;5.10;2.50;;;;;;;;;;5029241;28;20223;-32
2022/10/18 12:37:12;;;;;;;8.23;2.80;;;;;;;;;;5036812;28;20261;-38
2022/10/18 12:39:42;;;;;;;6.10;2.87;;;;;;;;;;5017345;28;20196;-35
2022/10/18 12:42:17;;;;;;;4.53;2.90;;;;;;;;;;5033114;28;20293;-38
2022/10/18 12:44:44;;;;;;;4.23;2.93;;;;;;;;;;5033438;28;20202;-37
2022/10/18 12:47:21;;;;;;;3.87;2.83;;;;;;;;;;5032655;28;20210;-33
2022/10/18 12:49:55;;;;;;;4.50;2.50;;;;;;;;;;5033077;28;20235;-35
2022/10/18 12:52:24;;;;;;;8.80;2.90;;;;;;;;;;5030698;28;20209;-35
2022/10/18 12:55:01;;;;;;;3.83;2.70;;;;;;;;;;5040405;28;20233;-36
2022/10/18 12:57:48;;;;;;;2.83;2.57;;;;;;;;;;5033205;28;20213;-34
2022/10/18 13:00:30;;;;;;;4.70;2.77;;;;;;;;;;5029158;28;20257;-37
2022/10/18 13:03:13;;;;;;;3.17;2.70;;;;;;;;;;5034882;28;20206;-33
2022/10/18 13:05:56;;;;;;;3.27;2.73;;;;;;;;;;5031035;28;20230;-35
2022/10/18 13:08:38;;;;;;;8.60;3.10;;;;;;;;;;5022552;28;20567;-36
2022/10/18 13:11:29;;;;;;;3.80;2.73;;;;;;;;;;5039941;28;20234;-32
2022/10/18 13:14:05;;;;;;;6.73;2.93;;;;;;;;;;5031664;28;20232;-34
2022/10/18 13:16:36;;;;;;;2.90;2.40;;;;;;;;;;5034566;28;20222;-38
2022/10/18 13:19:16;;;;;;;4.37;2.67;;;;;;;;;;5027978;28;20313;-39
2022/10/18 13:21:50;;;;;;;2.63;1.90;;;;;;;;;;5025982;28;20232;-36
2022/10/18 13:24:30;;;;;;;4.23;2.10;;;;;;;;;;5032442;28;20205;-33
2022/10/18 13:27:03;;;;;;;5.17;2.33;;;;;;;;;;5029921;28;20201;-35
2022/10/18 13:29:46;;;;;;;6.20;2.47;;;;;;;;;;5040375;28;20559;-36
2022/10/18 13:32:18;;;;;;;7.00;2.10;;;;;;;;;;5028430;28;20203;-32
2022/10/18 13:34:45;;;;;;;8.13;2.17;;;;;;;;;;5012962;28;20230;-34
2022/10/18 13:37:22;;;;;;;4.47;1.90;;;;;;;;;;5035128;28;20207;-37
2022/10/18 13:39:50;;;;;;;2.43;2.00;;;;;;;;;;5047765;28;20272;-32
2022/10/18 13:42:35;;;;;;;7.27;2.20;;;;;;;;;;5029121;28;20242;-35
2022/10/18 13:45:32;;;;;;;7.17;2.17;;;;;;;;;;5028596;28;20201;-36
2022/10/18 13:48:28;;;;;;;3.47;2.23;;;;;;;;;;5042097;28;20199;-36
2022/10/18 13:50:59;;;;;;;4.13;2.00;;;;;;;;;;5024314;28;20230;-39
2022/10/18 13:53:40;;;;;;;4.23;2.30;;;;;;;;;;5023521;28;20254;-34
2022/10/18 13:56:21;;;;;;;6.70;2.20;;;;;;;;;;5024561;28;20223;-33
2022/10/18 13:58:57;;;;;;;8.00;2.00;;;;;;;;;;5031765;28;20211;-33
2022/10/18 14:01:30;;;;;;;8.13;2.20;;;;;;;;;;5025255;28;20227;-35
2022/10/18 14:04:12;;;;;;;6.27;2.50;;;;;;;;;;5019279;28;20226;-37
2022/10/18 14:06:42;;;;;;;4.97;2.60;;;;;;;;;;5019030;28;20200;-38
2022/10/18 14:09:16;;;;;;;4.13;2.47;;;;;;;;;;5031460;28;20203;-37
2022/10/18 14:11:45;;;;;;;2.53;2.00;;;;;;;;;;5034348;28;20234;-35
2022/10/18 14:14:16;;;;;;;10.27;2.70;;;;;;;;;;5032630;28;20214;-34
2022/10/18 14:16:47;;;;;;;2.40;2.20;;;;;;;;;;5027362;28;20231;-35
2022/10/18 14:19:17;;;;;;;4.33;2.47;;;;;;;;;;5022588;28;20203;-34
2022/10/18 14:21:50;;;;;;;2.43;1.87;;;;;;;;;;5036481;28;20228;-37
2022/10/18 14:24:21;;;;;;;2.97;2.10;;;;;;;;;;5023210;28;20212;-34
2022/10/18 14:26:48;;;;;;;2.13;1.80;;;;;;;;;;5037272;28;20194;-33
2022/10/18 14:29:19;;;;;;;1.73;1.63;;;;;;;;;;5030983;28;20211;-36
2022/10/18 14:31:53;;;;;;;5.67;2.03;;;;;;;;;;5031417;28;20237;-32
2022/10/18 14:34:21;;;;;;;4.80;2.00;;;;;;;;;;5018975;28;20202;-38
2022/10/18 14:36:49;;;;;;;2.43;1.97;;;;;;;;;;5040110;28;20245;-35
2022/10/18 14:39:19;;;;;;;3.13;1.70;;;;;;;;;;5033008;28;20200;-33
2022/10/18 14:41:51;;;;;;;5.90;1.93;;;;;;;;;;5037197;28;20219;-37
2022/10/18 14:44:20;;;;;;;3.77;1.87;;;;;;;;;;5024746;28;20203;-35
2022/10/18 14:46:48;;;;;;;3.27;1.83;;;;;;;;;;5018709;28;20231;-34
2022/10/18 14:49:15;;;;;;;5.30;1.93;;;;;;;;;;5032410;28;20201;-34
2022/10/18 14:51:44;;;;;;;3.30;2.10;;;;;;;;;;5023152;28;20227;-38
2022/10/18 14:54:14;;;;;;;2.17;1.80;;;;;;;;;;5024595;28;20200;-38
2022/10/18 14:56:42;;;;;;;5.43;2.07;;;;;;;;;;5026452;28;20230;-33
2022/10/18 14:59:13;;;;;;;6.47;2.20;;;;;;;;;;5045689;28;20196;-35
2022/10/18 15:01:40;;;;;;;2.87;2.17;;;;;;;;;;5031186;28;20226;-35
2022/10/18 15:04:10;;;;;;;5.80;2.27;;;;;;;;;;5031317;28;20231;-33
2022/10/18 15:06:37;;;;;;;6.03;2.30;;;;;;;;;;5040021;28;20195;-36